createdAt,value
2022-12-22T00:02:33.051Z,7.82
2022-12-22T00:05:19.848Z,7.97
2022-12-22T00:08:05.634Z,7.83
2022-12-22T00:10:51.954Z,7.91
2022-12-22T00:13:38.239Z,7.68
2022-12-22T00:16:27.084Z,7.91
2022-12-22T00:19:12.801Z,7.97
2022-12-22T00:21:59.998Z,7.78
2022-12-22T00:24:45.661Z,7.87
2022-12-22T00:27:39.104Z,8.00
2022-12-22T00:30:35.374Z,7.92
2022-12-22T00:33:24.101Z,7.93
2022-12-22T00:36:10.448Z,8.02
2022-12-22T00:38:56.086Z,8.06
2022-12-22T00:41:41.958Z,8.04
2022-12-22T00:44:27.726Z,8.19
2022-12-22T00:47:13.395Z,8.41
2022-12-22T00:50:04.606Z,8.26
2022-12-22T00:52:50.990Z,8.17
2022-12-22T00:55:41.945Z,8.12
2022-12-22T00:58:34.413Z,7.98
2022-12-22T01:01:21.081Z,8.02
2022-12-22T01:04:06.880Z,7.79
2022-12-22T01:06:55.271Z,7.91
2022-12-22T01:09:42.058Z,7.73
2022-12-22T01:12:43.053Z,7.86
2022-12-22T01:15:32.485Z,7.86
2022-12-22T01:18:18.163Z,7.58
2022-12-22T01:21:04.199Z,7.49
2022-12-22T01:23:49.786Z,7.80
2022-12-22T01:26:35.220Z,7.75
2022-12-22T01:29:21.073Z,7.82
2022-12-22T01:32:07.000Z,7.70
2022-12-22T01:34:55.148Z,7.88
2022-12-22T01:37:40.814Z,7.89
2022-12-22T01:40:41.729Z,7.89
2022-12-22T01:43:44.034Z,7.67
2022-12-22T01:46:40.749Z,7.66
2022-12-22T01:49:53.415Z,7.63
2022-12-22T01:52:43.300Z,7.50
2022-12-22T01:55:35.089Z,7.57
2022-12-22T01:58:21.247Z,7.68
2022-12-22T02:01:06.992Z,7.78
2022-12-22T02:03:52.780Z,7.65
2022-12-22T02:06:48.698Z,7.74
2022-12-22T02:09:59.472Z,7.69
2022-12-22T02:13:03.520Z,8.02
2022-12-22T02:16:05.417Z,8.10
2022-12-22T02:19:01.557Z,8.26
2022-12-22T02:21:53.635Z,8.22
2022-12-22T02:25:02.472Z,8.18
2022-12-22T02:27:52.379Z,8.16
2022-12-22T02:30:38.655Z,8.11
2022-12-22T02:33:27.456Z,7.92
2022-12-22T02:36:39.773Z,8.10
2022-12-22T02:39:31.451Z,8.29
2022-12-22T02:42:23.321Z,8.35
2022-12-22T02:45:57.744Z,8.20
2022-12-22T02:48:56.212Z,8.15
2022-12-22T02:51:47.602Z,8.01
2022-12-22T02:54:36.188Z,8.22
2022-12-22T02:57:24.847Z,7.75
2022-12-22T03:00:11.211Z,7.73
2022-12-22T03:02:57.307Z,7.73
2022-12-22T03:05:43.269Z,7.57
2022-12-22T03:08:30.064Z,7.86
2022-12-22T03:11:15.796Z,7.70
2022-12-22T03:14:03.559Z,7.92
2022-12-22T03:16:49.387Z,7.73
2022-12-22T03:19:36.196Z,7.87
2022-12-22T03:22:22.105Z,7.95
2022-12-22T03:25:11.885Z,7.83
2022-12-22T03:27:39.359Z,7.77
2022-12-22T03:30:07.318Z,7.84
2022-12-22T03:32:34.666Z,7.90
2022-12-22T03:35:03.191Z,7.85
2022-12-22T03:37:30.726Z,7.77
2022-12-22T03:39:58.138Z,7.93
2022-12-22T03:42:44.124Z,7.96
2022-12-22T03:45:48.177Z,7.97
2022-12-22T03:48:15.499Z,8.17
2022-12-22T03:50:43.980Z,8.19
2022-12-22T03:53:11.353Z,8.23
2022-12-22T03:55:38.691Z,7.95
2022-12-22T03:58:06.058Z,7.94
2022-12-22T04:00:33.453Z,7.86
2022-12-22T04:03:02.154Z,7.80
2022-12-22T04:05:29.619Z,8.04
2022-12-22T04:07:57.088Z,8.23
2022-12-22T04:10:43.306Z,8.12
2022-12-22T04:13:10.818Z,8.04
2022-12-22T04:15:38.246Z,7.95
2022-12-22T04:18:05.717Z,7.89
2022-12-22T04:20:33.299Z,8.11
2022-12-22T04:23:00.885Z,8.07
2022-12-22T04:25:29.663Z,7.88
2022-12-22T04:27:57.140Z,7.93
2022-12-22T04:30:24.612Z,7.90
2022-12-22T04:32:52.099Z,7.75
2022-12-22T04:35:21.636Z,7.68
2022-12-22T04:37:49.063Z,7.85
2022-12-22T04:40:16.677Z,7.79
2022-12-22T04:42:44.149Z,8.02
2022-12-22T04:45:11.791Z,7.82
2022-12-22T04:47:41.308Z,7.90
2022-12-22T04:50:09.025Z,7.92
2022-12-22T04:52:36.575Z,7.96
2022-12-22T04:55:04.689Z,7.98
2022-12-22T04:57:37.028Z,7.99
2022-12-22T05:00:09.786Z,8.05
2022-12-22T05:02:37.432Z,8.13
2022-12-22T05:05:05.282Z,8.19
2022-12-22T05:07:32.749Z,8.28
2022-12-22T05:10:00.161Z,8.17
2022-12-22T05:12:45.961Z,8.08
2022-12-22T05:15:13.796Z,8.17
2022-12-22T05:17:41.213Z,7.78
2022-12-22T05:20:09.241Z,8.17
2022-12-22T05:22:36.753Z,8.03
2022-12-22T05:25:04.570Z,7.88
2022-12-22T05:27:31.967Z,7.87
2022-12-22T05:29:59.567Z,7.89
2022-12-22T05:32:27.097Z,7.97
2022-12-22T05:34:54.470Z,8.02
2022-12-22T05:37:21.913Z,7.93
2022-12-22T05:39:49.296Z,8.01
2022-12-22T05:42:35.792Z,8.09
2022-12-22T05:45:06.240Z,8.08
2022-12-22T05:47:35.050Z,8.03
2022-12-22T05:50:02.534Z,8.00
2022-12-22T05:52:31.096Z,8.00
2022-12-22T05:54:58.515Z,8.06
2022-12-22T05:57:27.076Z,8.04
2022-12-22T05:59:54.662Z,8.19
2022-12-22T06:02:22.321Z,7.93
2022-12-22T06:04:49.922Z,7.79
2022-12-22T06:07:17.352Z,7.66
2022-12-22T06:09:45.897Z,7.65
2022-12-22T06:12:14.403Z,7.82
2022-12-22T06:14:41.885Z,8.02
2022-12-22T06:17:09.743Z,8.23
2022-12-22T06:19:37.390Z,8.21
2022-12-22T06:22:04.970Z,8.12
2022-12-22T06:24:32.392Z,8.16
2022-12-22T06:26:59.844Z,7.99
2022-12-22T06:29:27.399Z,7.82
2022-12-22T06:31:54.793Z,7.84
2022-12-22T06:34:22.275Z,7.86
2022-12-22T06:36:50.135Z,8.04
2022-12-22T06:39:17.817Z,7.98
2022-12-22T06:42:05.175Z,7.96
2022-12-22T06:44:32.626Z,7.79
2022-12-22T06:47:00.252Z,7.98
2022-12-22T06:49:27.804Z,8.11
2022-12-22T06:51:55.342Z,8.15
2022-12-22T06:54:26.302Z,8.06
2022-12-22T06:56:55.015Z,8.16
2022-12-22T06:59:22.365Z,7.94
2022-12-22T07:01:49.821Z,8.17
2022-12-22T07:04:20.732Z,8.05
2022-12-22T07:06:48.642Z,8.20
2022-12-22T07:09:21.597Z,8.33
2022-12-22T07:11:49.074Z,8.03
2022-12-22T07:14:18.573Z,7.95
2022-12-22T07:16:47.142Z,7.95
2022-12-22T07:19:14.828Z,7.89
2022-12-22T07:21:42.275Z,7.93
2022-12-22T07:24:09.744Z,7.70
2022-12-22T07:26:37.235Z,7.69
2022-12-22T07:29:04.728Z,7.89
2022-12-22T07:32:16.482Z,8.06
2022-12-22T07:35:18.232Z,8.10
2022-12-22T07:38:03.993Z,8.00
2022-12-22T07:40:31.321Z,8.06
2022-12-22T07:43:17.501Z,8.10
2022-12-22T07:46:06.508Z,7.88
2022-12-22T07:49:11.434Z,7.87
2022-12-22T07:51:58.234Z,7.87
2022-12-22T07:54:44.283Z,7.95
2022-12-22T07:57:11.649Z,7.95
2022-12-22T07:59:57.773Z,8.02
2022-12-22T08:02:25.268Z,7.89
2022-12-22T08:05:11.535Z,8.00
2022-12-22T08:07:57.467Z,8.16
2022-12-22T08:10:43.472Z,8.06
2022-12-22T08:13:29.479Z,8.28
2022-12-22T08:16:15.191Z,8.26
2022-12-22T08:18:42.927Z,8.06
2022-12-22T08:21:10.870Z,8.06
2022-12-22T08:23:38.597Z,8.18
2022-12-22T08:26:14.178Z,7.97
2022-12-22T08:29:08.833Z,8.10
2022-12-22T08:31:55.512Z,8.26
2022-12-22T08:34:41.757Z,8.15
2022-12-22T08:37:15.012Z,8.15
2022-12-22T08:39:46.670Z,8.08
2022-12-22T08:42:33.888Z,8.32
2022-12-22T08:45:20.297Z,8.35
2022-12-22T08:47:47.858Z,8.25
2022-12-22T08:50:15.296Z,8.31
2022-12-22T08:52:42.816Z,8.43
2022-12-22T08:55:10.460Z,8.57
2022-12-22T08:57:38.275Z,8.57
2022-12-22T09:00:08.623Z,8.15
2022-12-22T09:02:36.904Z,8.35
2022-12-22T09:05:04.881Z,8.45
2022-12-22T09:07:32.311Z,8.46
2022-12-22T09:10:00.090Z,8.53
2022-12-22T09:12:27.594Z,8.71
2022-12-22T09:14:55.038Z,8.55
2022-12-22T09:17:22.451Z,8.54
2022-12-22T09:19:49.808Z,8.80
2022-12-22T09:22:21.724Z,8.91
2022-12-22T09:24:52.590Z,8.98
2022-12-22T09:27:19.917Z,8.58
2022-12-22T09:29:47.364Z,9.02
2022-12-22T09:32:14.781Z,9.16
2022-12-22T09:34:42.211Z,9.24
2022-12-22T09:37:09.698Z,9.31
2022-12-22T09:39:37.339Z,9.25
2022-12-22T09:42:04.859Z,9.43
2022-12-22T09:44:39.995Z,9.55
2022-12-22T09:47:36.109Z,9.35
2022-12-22T09:50:08.975Z,9.21
2022-12-22T09:52:36.317Z,8.96
2022-12-22T09:55:12.936Z,9.16
2022-12-22T09:57:40.365Z,9.52
2022-12-22T10:00:15.095Z,9.41
2022-12-22T10:02:57.634Z,9.30
2022-12-22T10:05:38.617Z,9.35
2022-12-22T10:08:18.875Z,9.21
2022-12-22T10:10:53.767Z,9.32
2022-12-22T10:13:21.274Z,9.13
2022-12-22T10:15:52.082Z,8.91
2022-12-22T10:18:30.359Z,9.24
2022-12-22T10:21:14.589Z,8.97
2022-12-22T10:23:47.115Z,9.31
2022-12-22T10:26:29.300Z,9.06
2022-12-22T10:29:10.330Z,9.10
2022-12-22T10:32:01.982Z,9.34
2022-12-22T10:34:30.038Z,9.53
2022-12-22T10:37:02.705Z,9.38
2022-12-22T10:39:34.141Z,9.16
2022-12-22T10:42:13.468Z,9.53
2022-12-22T10:44:45.774Z,9.36
2022-12-22T10:47:18.179Z,9.12
2022-12-22T10:49:49.585Z,9.16
2022-12-22T10:52:30.469Z,9.30
2022-12-22T10:55:17.949Z,9.29
2022-12-22T10:57:45.472Z,9.47
2022-12-22T11:00:31.994Z,9.33
2022-12-22T11:03:01.758Z,9.68
2022-12-22T11:05:31.274Z,9.36
2022-12-22T11:08:27.176Z,9.16
2022-12-22T11:11:07.858Z,9.12
2022-12-22T11:13:38.031Z,9.13
2022-12-22T11:16:25.449Z,9.20
2022-12-22T11:19:01.517Z,8.94
2022-12-22T11:21:30.739Z,9.10
2022-12-22T11:24:08.672Z,9.30
2022-12-22T11:27:01.773Z,9.18
2022-12-22T11:29:47.642Z,9.39
2022-12-22T11:32:18.753Z,9.61
2022-12-22T11:35:00.523Z,8.93
2022-12-22T11:37:56.676Z,9.28
2022-12-22T11:40:32.956Z,9.51
2022-12-22T11:43:33.162Z,9.46
2022-12-22T11:46:06.541Z,9.72
2022-12-22T11:48:45.865Z,9.60
2022-12-22T11:51:34.307Z,9.94
2022-12-22T11:54:21.364Z,9.80
2022-12-22T11:57:02.649Z,10.01
2022-12-22T11:59:47.435Z,9.95
2022-12-22T12:02:20.894Z,10.29
2022-12-22T12:05:20.867Z,10.42
2022-12-22T12:07:58.117Z,9.87
2022-12-22T12:10:34.569Z,10.12
2022-12-22T12:13:10.753Z,10.31
2022-12-22T12:15:41.117Z,10.48
2022-12-22T12:18:33.508Z,10.59
2022-12-22T12:21:11.183Z,10.50
2022-12-22T12:23:44.812Z,10.61
2022-12-22T12:26:40.493Z,10.67
2022-12-22T12:29:07.879Z,10.46
2022-12-22T12:31:53.907Z,10.38
2022-12-22T12:34:22.620Z,10.43
2022-12-22T12:37:14.558Z,10.05
2022-12-22T12:39:59.840Z,10.12
2022-12-22T12:42:37.096Z,10.56
2022-12-22T12:45:35.287Z,10.39
2022-12-22T12:48:20.916Z,10.29
2022-12-22T12:50:52.264Z,10.14
2022-12-22T12:53:21.837Z,10.09
2022-12-22T12:55:53.707Z,10.05
2022-12-22T12:58:39.016Z,9.95
2022-12-22T13:01:32.852Z,10.03
2022-12-22T13:04:03.762Z,9.74
2022-12-22T13:07:01.510Z,9.73
2022-12-22T13:12:48.625Z,9.57
2022-12-22T13:15:41.793Z,10.01
2022-12-22T13:18:24.592Z,9.81
2022-12-22T13:21:52.434Z,9.84
2022-12-22T13:24:47.206Z,9.97
2022-12-22T13:27:16.940Z,9.77
2022-12-22T13:29:47.419Z,10.10
2022-12-22T13:32:24.029Z,10.08
2022-12-22T13:35:33.714Z,10.19
2022-12-22T13:38:04.853Z,10.26
2022-12-22T13:40:43.284Z,9.70
2022-12-22T13:43:17.880Z,9.58
2022-12-22T13:45:50.272Z,9.75
2022-12-22T13:48:44.480Z,9.51
2022-12-22T13:51:36.057Z,9.59
2022-12-22T13:54:11.891Z,9.40
2022-12-22T13:56:42.568Z,9.33
2022-12-22T13:59:28.742Z,9.30
2022-12-22T14:02:08.159Z,9.43
2022-12-22T14:04:38.541Z,9.43
2022-12-22T14:07:12.793Z,9.43
2022-12-22T14:09:49.077Z,9.54
2022-12-22T14:12:25.413Z,9.32
2022-12-22T14:14:54.970Z,9.32
2022-12-22T14:17:25.978Z,9.40
2022-12-22T14:19:57.720Z,9.14
2022-12-22T14:22:29.020Z,9.09
2022-12-22T14:25:04.524Z,9.24
2022-12-22T14:27:32.705Z,9.20
2022-12-22T14:30:02.893Z,9.00
2022-12-22T14:32:38.036Z,9.08
2022-12-22T14:35:27.502Z,9.04
2022-12-22T14:38:07.088Z,9.19
2022-12-22T14:40:56.781Z,9.15
2022-12-22T14:43:28.591Z,9.23
2022-12-22T14:46:05.802Z,9.02
2022-12-22T14:48:38.093Z,9.15
2022-12-22T14:51:06.419Z,9.04
2022-12-22T14:53:48.868Z,9.16
2022-12-22T14:56:18.615Z,9.20
2022-12-22T14:59:13.162Z,9.09
2022-12-22T15:01:56.023Z,9.00
2022-12-22T15:04:23.687Z,9.09
2022-12-22T15:06:51.280Z,9.13
2022-12-22T15:09:39.704Z,9.03
2022-12-22T15:12:14.031Z,8.90
2022-12-22T15:14:42.542Z,9.04
2022-12-22T15:17:25.858Z,9.04
2022-12-22T15:19:59.429Z,9.15
2022-12-22T15:22:27.165Z,9.10
2022-12-22T15:24:56.996Z,9.03
2022-12-22T15:27:24.751Z,9.03
2022-12-22T15:29:52.574Z,9.10
2022-12-22T15:32:20.402Z,9.13
2022-12-22T15:34:48.146Z,8.94
2022-12-22T15:37:15.995Z,8.91
2022-12-22T15:39:45.655Z,8.74
2022-12-22T15:42:13.478Z,9.29
2022-12-22T15:44:43.618Z,9.32
2022-12-22T16:01:37.370Z,8.91
2022-12-22T16:49:36.218Z,8.70
2022-12-22T16:50:01.695Z,8.74
2022-12-22T16:52:40.948Z,8.63
2022-12-22T16:55:19.856Z,8.46
2022-12-22T16:57:48.255Z,8.39
2022-12-22T17:00:19.544Z,8.71
2022-12-22T17:02:51.850Z,8.67
2022-12-22T17:05:29.204Z,8.75
2022-12-22T17:11:21.657Z,8.61
2022-12-22T17:13:52.819Z,8.36
2022-12-22T17:16:23.193Z,8.47
2022-12-22T17:18:50.927Z,8.58
2022-12-22T17:21:23.339Z,8.48
2022-12-22T17:24:04.935Z,8.66
2022-12-22T17:26:47.721Z,8.75
2022-12-22T17:29:28.572Z,8.36
2022-12-22T17:31:57.303Z,8.39
2022-12-22T17:34:25.008Z,8.57
2022-12-22T17:36:52.600Z,8.70
2022-12-22T17:39:22.421Z,8.73
2022-12-22T17:41:57.525Z,8.74
2022-12-22T17:44:30.497Z,8.93
2022-12-22T17:46:58.133Z,8.83
2022-12-22T17:49:56.175Z,8.71
2022-12-22T17:52:28.546Z,8.64
2022-12-22T17:54:57.074Z,8.83
2022-12-22T17:57:27.947Z,8.82
2022-12-22T17:59:56.725Z,8.61
2022-12-22T18:02:25.730Z,8.85
2022-12-22T18:04:54.494Z,8.87
2022-12-22T18:07:24.879Z,8.92
2022-12-22T18:09:59.040Z,8.99
2022-12-22T18:12:26.720Z,8.76
2022-12-22T18:14:57.373Z,8.71
2022-12-22T18:17:35.475Z,8.56
2022-12-22T18:20:03.980Z,8.82
2022-12-22T18:22:33.072Z,8.98
2022-12-22T18:25:00.726Z,8.90
2022-12-22T18:27:29.483Z,9.02
2022-12-22T18:29:57.262Z,8.69
2022-12-22T18:32:29.414Z,8.70
2022-12-22T18:34:56.899Z,8.66
2022-12-22T18:37:24.343Z,8.76
2022-12-22T18:39:51.915Z,8.93
2022-12-22T18:42:23.063Z,8.81
2022-12-22T18:44:51.599Z,8.50
2022-12-22T18:47:19.363Z,8.40
2022-12-22T18:49:47.205Z,8.56
2022-12-22T18:52:19.185Z,8.76
2022-12-22T18:54:47.066Z,8.49
2022-12-22T18:57:19.593Z,8.38
2022-12-22T18:59:48.884Z,8.49
2022-12-22T19:02:20.705Z,8.53
2022-12-22T19:04:49.857Z,8.59
2022-12-22T19:07:20.075Z,8.60
2022-12-22T19:09:48.465Z,8.56
2022-12-22T19:12:23.381Z,8.68
2022-12-22T19:14:56.577Z,8.62
2022-12-22T19:17:28.894Z,8.59
2022-12-22T19:19:58.162Z,8.35
2022-12-22T19:22:25.751Z,8.34
2022-12-22T19:24:57.572Z,8.56
2022-12-22T19:27:27.890Z,8.58
2022-12-22T19:30:04.235Z,8.61
2022-12-22T19:32:42.199Z,8.53
2022-12-22T19:35:18.386Z,8.48
2022-12-22T19:37:47.348Z,8.79
2022-12-22T19:40:17.007Z,9.00
2022-12-22T19:42:47.631Z,8.97
2022-12-22T19:45:25.752Z,8.77
2022-12-22T19:47:56.999Z,8.83
2022-12-22T19:50:50.952Z,8.77
2022-12-22T19:53:18.952Z,8.66
2022-12-22T19:55:54.595Z,8.56
2022-12-22T19:58:34.140Z,8.45
2022-12-22T20:01:02.135Z,8.64
2022-12-22T20:03:29.913Z,8.51
2022-12-22T20:05:57.733Z,8.42
2022-12-22T20:08:25.720Z,8.35
2022-12-22T20:10:58.336Z,8.41
2022-12-22T20:13:31.563Z,8.62
2022-12-22T20:16:02.366Z,8.83
2022-12-22T20:18:37.738Z,8.79
2022-12-22T20:21:12.642Z,8.70
2022-12-22T20:23:41.019Z,8.65
2022-12-22T20:26:19.395Z,8.56
2022-12-22T20:28:49.800Z,8.49
2022-12-22T20:31:20.567Z,8.54
2022-12-22T20:33:49.057Z,8.70
2022-12-22T20:36:32.149Z,8.60
2022-12-22T20:39:01.516Z,8.73
2022-12-22T20:41:32.115Z,8.68
2022-12-22T20:44:04.944Z,8.59
2022-12-22T20:56:37.008Z,8.46
2022-12-22T20:59:23.887Z,8.38
2022-12-22T21:01:52.918Z,8.24
2022-12-22T21:04:27.834Z,8.36
2022-12-22T21:07:25.484Z,8.42
2022-12-22T21:09:53.290Z,8.35
2022-12-22T21:12:20.950Z,8.38
2022-12-22T21:14:49.562Z,8.52
2022-12-22T21:17:19.159Z,8.40
2022-12-22T21:19:46.973Z,8.37
2022-12-22T21:22:14.787Z,8.44
2022-12-22T21:24:44.015Z,8.47
2022-12-22T21:27:20.448Z,8.45
2022-12-22T21:30:26.899Z,8.28
2022-12-22T21:32:55.269Z,8.09
2022-12-22T21:35:29.314Z,8.04
2022-12-22T21:37:59.976Z,8.22
2022-12-22T21:40:30.104Z,8.49
2022-12-22T21:42:58.263Z,8.50
2022-12-22T21:45:29.915Z,8.42
2022-12-22T21:48:02.240Z,8.45
2022-12-22T21:50:32.672Z,8.58
2022-12-22T21:53:01.636Z,8.60
2022-12-22T21:55:32.391Z,8.62
2022-12-22T21:58:00.907Z,8.69
2022-12-22T22:00:30.188Z,8.63
2022-12-22T22:03:23.646Z,8.60
2022-12-22T22:05:52.063Z,8.09
2022-12-22T22:08:19.735Z,7.93
2022-12-22T22:10:47.442Z,8.12
2022-12-22T22:13:15.691Z,8.12
2022-12-22T22:15:44.088Z,8.10
2022-12-22T22:18:19.784Z,8.33
2022-12-22T22:20:48.072Z,8.44
2022-12-22T22:23:15.941Z,8.41
2022-12-22T22:25:43.710Z,8.40
2022-12-22T22:28:11.908Z,8.25
2022-12-22T22:30:41.999Z,8.30
2022-12-22T22:33:19.835Z,8.08
2022-12-22T22:35:47.766Z,8.23
2022-12-22T22:38:19.298Z,8.36
2022-12-22T22:40:48.343Z,8.25
2022-12-22T22:43:17.391Z,8.28
2022-12-22T22:45:46.747Z,8.30
2022-12-22T22:48:26.738Z,8.20
2022-12-22T22:50:57.200Z,8.27
2022-12-22T22:53:27.046Z,8.15
2022-12-22T22:55:54.884Z,8.13
2022-12-22T22:58:22.654Z,8.26
2022-12-22T23:00:50.311Z,8.04
2022-12-22T23:03:18.193Z,8.04
2022-12-22T23:05:46.149Z,7.94
2022-12-22T23:08:13.836Z,7.68
2022-12-22T23:10:53.353Z,8.01
2022-12-22T23:13:21.276Z,8.06
2022-12-22T23:16:03.693Z,7.89
2022-12-22T23:18:32.465Z,8.16
2022-12-22T23:21:02.266Z,8.12
2022-12-22T23:23:32.088Z,8.12
2022-12-22T23:25:59.907Z,8.07
2022-12-22T23:28:27.631Z,8.09
2022-12-22T23:30:55.376Z,8.14
2022-12-22T23:33:23.053Z,8.19
2022-12-22T23:35:51.269Z,8.12
2022-12-22T23:38:23.785Z,8.18
2022-12-22T23:40:53.431Z,8.25
2022-12-22T23:43:22.429Z,8.34
2022-12-22T23:45:49.967Z,8.29
2022-12-22T23:48:17.783Z,8.29
2022-12-22T23:50:48.685Z,8.26
2022-12-22T23:53:17.006Z,8.32
2022-12-22T23:55:45.745Z,8.23
2022-12-22T23:58:14.212Z,7.90
